sensor_id;sensor_type;location;lat;lon;timestamp;P1;durP1;ratioP1;P2;durP2;ratioP2
70818;SDS011;58439;51.046;13.692;2023-03-05T00:03:01;16.50;;;2.78;;
70818;SDS011;58439;51.046;13.692;2023-03-05T00:05:44;11.88;;;3.38;;
70818;SDS011;58439;51.046;13.692;2023-03-05T00:08:47;14.45;;;3.20;;
70818;SDS011;58439;51.046;13.692;2023-03-05T00:11:15;10.27;;;2.50;;
70818;SDS011;58439;51.046;13.692;2023-03-05T00:14:10;11.90;;;2.13;;
70818;SDS011;58439;51.046;13.692;2023-03-05T00:16:42;10.40;;;1.77;;
70818;SDS011;58439;51.046;13.692;2023-03-05T00:19:13;16.15;;;2.63;;
70818;SDS011;58439;51.046;13.692;2023-03-05T00:21:51;13.35;;;2.45;;
70818;SDS011;58439;51.046;13.692;2023-03-05T00:26:12;16.20;;;2.95;;
70818;SDS011;58439;51.046;13.692;2023-03-05T00:35:19;16.08;;;2.83;;
70818;SDS011;58439;51.046;13.692;2023-03-05T00:37:47;13.70;;;2.10;;
70818;SDS011;58439;51.046;13.692;2023-03-05T00:40:14;11.77;;;2.95;;
70818;SDS011;58439;51.046;13.692;2023-03-05T00:42:42;13.40;;;2.83;;
70818;SDS011;58439;51.046;13.692;2023-03-05T00:45:09;17.80;;;3.05;;
70818;SDS011;58439;51.046;13.692;2023-03-05T00:47:37;19.00;;;3.28;;
70818;SDS011;58439;51.046;13.692;2023-03-05T00:50:05;15.70;;;2.92;;
70818;SDS011;58439;51.046;13.692;2023-03-05T00:52:33;18.10;;;3.00;;
70818;SDS011;58439;51.046;13.692;2023-03-05T00:55:01;8.70;;;2.33;;
70818;SDS011;58439;51.046;13.692;2023-03-05T00:57:29;19.88;;;2.53;;
70818;SDS011;58439;51.046;13.692;2023-03-05T00:59:56;18.38;;;3.25;;
70818;SDS011;58439;51.046;13.692;2023-03-05T01:02:23;17.80;;;3.08;;
70818;SDS011;58439;51.046;13.692;2023-03-05T01:05:15;10.70;;;2.70;;
70818;SDS011;58439;51.046;13.692;2023-03-05T01:07:42;14.95;;;2.75;;
70818;SDS011;58439;51.046;13.692;2023-03-05T01:10:13;12.93;;;3.17;;
70818;SDS011;58439;51.046;13.692;2023-03-05T01:12:40;11.15;;;2.58;;
70818;SDS011;58439;51.046;13.692;2023-03-05T01:15:08;17.00;;;2.63;;
70818;SDS011;58439;51.046;13.692;2023-03-05T01:17:36;10.82;;;1.73;;
70818;SDS011;58439;51.046;13.692;2023-03-05T01:20:03;11.38;;;2.40;;
70818;SDS011;58439;51.046;13.692;2023-03-05T01:22:33;12.07;;;2.55;;
70818;SDS011;58439;51.046;13.692;2023-03-05T01:25:03;13.27;;;2.55;;
70818;SDS011;58439;51.046;13.692;2023-03-05T01:27:30;14.27;;;2.60;;
70818;SDS011;58439;51.046;13.692;2023-03-05T01:29:57;16.05;;;3.25;;
70818;SDS011;58439;51.046;13.692;2023-03-05T01:32:25;18.15;;;3.00;;
70818;SDS011;58439;51.046;13.692;2023-03-05T01:34:52;13.27;;;2.13;;
70818;SDS011;58439;51.046;13.692;2023-03-05T01:37:19;12.23;;;2.35;;
70818;SDS011;58439;51.046;13.692;2023-03-05T01:39:47;10.70;;;2.30;;
70818;SDS011;58439;51.046;13.692;2023-03-05T01:42:14;11.70;;;2.03;;
70818;SDS011;58439;51.046;13.692;2023-03-05T01:44:57;11.82;;;2.10;;
70818;SDS011;58439;51.046;13.692;2023-03-05T01:47:32;4.95;;;1.63;;
70818;SDS011;58439;51.046;13.692;2023-03-05T01:49:59;16.63;;;1.80;;
70818;SDS011;58439;51.046;13.692;2023-03-05T01:52:27;15.15;;;2.38;;
70818;SDS011;58439;51.046;13.692;2023-03-05T01:55:00;13.23;;;2.22;;
70818;SDS011;58439;51.046;13.692;2023-03-05T01:57:35;12.85;;;2.05;;
70818;SDS011;58439;51.046;13.692;2023-03-05T02:00:15;12.82;;;2.13;;
70818;SDS011;58439;51.046;13.692;2023-03-05T02:02:57;15.65;;;2.58;;
70818;SDS011;58439;51.046;13.692;2023-03-05T02:05:35;9.73;;;1.83;;
70818;SDS011;58439;51.046;13.692;2023-03-05T02:08:05;8.77;;;2.03;;
70818;SDS011;58439;51.046;13.692;2023-03-05T02:10:43;11.02;;;1.90;;
70818;SDS011;58439;51.046;13.692;2023-03-05T02:13:19;22.20;;;2.70;;
70818;SDS011;58439;51.046;13.692;2023-03-05T02:15:52;9.50;;;2.97;;
70818;SDS011;58439;51.046;13.692;2023-03-05T02:18:22;9.60;;;1.88;;
70818;SDS011;58439;51.046;13.692;2023-03-05T02:20:58;17.30;;;2.95;;
70818;SDS011;58439;51.046;13.692;2023-03-05T02:23:32;12.82;;;1.92;;
70818;SDS011;58439;51.046;13.692;2023-03-05T02:26:06;6.90;;;1.77;;
70818;SDS011;58439;51.046;13.692;2023-03-05T02:28:38;14.50;;;2.25;;
70818;SDS011;58439;51.046;13.692;2023-03-05T02:31:18;10.77;;;2.03;;
70818;SDS011;58439;51.046;13.692;2023-03-05T02:33:50;10.60;;;1.70;;
70818;SDS011;58439;51.046;13.692;2023-03-05T02:36:21;8.98;;;1.70;;
70818;SDS011;58439;51.046;13.692;2023-03-05T02:38:49;7.55;;;1.90;;
70818;SDS011;58439;51.046;13.692;2023-03-05T02:41:20;6.53;;;2.03;;
70818;SDS011;58439;51.046;13.692;2023-03-05T02:43:48;12.23;;;1.73;;
70818;SDS011;58439;51.046;13.692;2023-03-05T02:46:16;7.85;;;1.98;;
70818;SDS011;58439;51.046;13.692;2023-03-05T02:48:44;11.65;;;1.88;;
70818;SDS011;58439;51.046;13.692;2023-03-05T02:51:13;6.88;;;1.58;;
70818;SDS011;58439;51.046;13.692;2023-03-05T02:53:44;7.30;;;2.10;;
70818;SDS011;58439;51.046;13.692;2023-03-05T02:56:12;16.80;;;2.25;;
70818;SDS011;58439;51.046;13.692;2023-03-05T02:58:40;9.98;;;1.60;;
70818;SDS011;58439;51.046;13.692;2023-03-05T03:01:08;5.63;;;1.27;;
70818;SDS011;58439;51.046;13.692;2023-03-05T03:03:36;2.47;;;1.10;;
70818;SDS011;58439;51.046;13.692;2023-03-05T03:06:08;10.40;;;2.50;;
70818;SDS011;58439;51.046;13.692;2023-03-05T03:08:35;12.77;;;2.22;;
70818;SDS011;58439;51.046;13.692;2023-03-05T03:11:03;11.88;;;2.15;;
70818;SDS011;58439;51.046;13.692;2023-03-05T03:13:34;10.40;;;1.63;;
70818;SDS011;58439;51.046;13.692;2023-03-05T03:16:02;4.53;;;1.30;;
70818;SDS011;58439;51.046;13.692;2023-03-05T03:18:35;13.68;;;2.20;;
70818;SDS011;58439;51.046;13.692;2023-03-05T03:21:03;10.73;;;1.70;;
70818;SDS011;58439;51.046;13.692;2023-03-05T03:23:33;10.40;;;2.22;;
70818;SDS011;58439;51.046;13.692;2023-03-05T03:26:01;5.22;;;1.73;;
70818;SDS011;58439;51.046;13.692;2023-03-05T03:28:29;9.98;;;1.70;;
70818;SDS011;58439;51.046;13.692;2023-03-05T03:30:56;12.30;;;1.60;;
70818;SDS011;58439;51.046;13.692;2023-03-05T03:33:24;12.70;;;2.47;;
70818;SDS011;58439;51.046;13.692;2023-03-05T03:35:51;6.68;;;1.15;;
70818;SDS011;58439;51.046;13.692;2023-03-05T03:38:19;9.20;;;1.30;;
70818;SDS011;58439;51.046;13.692;2023-03-05T03:40:49;7.53;;;1.70;;
70818;SDS011;58439;51.046;13.692;2023-03-05T03:43:20;13.27;;;1.48;;
70818;SDS011;58439;51.046;13.692;2023-03-05T03:45:47;6.38;;;1.25;;
70818;SDS011;58439;51.046;13.692;2023-03-05T03:48:14;7.18;;;1.55;;
70818;SDS011;58439;51.046;13.692;2023-03-05T03:50:42;8.45;;;1.45;;
70818;SDS011;58439;51.046;13.692;2023-03-05T03:53:10;9.93;;;1.75;;
70818;SDS011;58439;51.046;13.692;2023-03-05T03:55:40;3.65;;;1.27;;
70818;SDS011;58439;51.046;13.692;2023-03-05T03:58:16;12.52;;;3.97;;
70818;SDS011;58439;51.046;13.692;2023-03-05T04:00:47;11.52;;;2.85;;
70818;SDS011;58439;51.046;13.692;2023-03-05T04:03:24;8.85;;;1.50;;
70818;SDS011;58439;51.046;13.692;2023-03-05T04:05:51;7.75;;;1.27;;
70818;SDS011;58439;51.046;13.692;2023-03-05T04:08:18;6.50;;;1.00;;
70818;SDS011;58439;51.046;13.692;2023-03-05T04:10:45;5.90;;;0.98;;
70818;SDS011;58439;51.046;13.692;2023-03-05T04:13:13;7.05;;;1.20;;
70818;SDS011;58439;51.046;13.692;2023-03-05T04:15:40;4.43;;;0.73;;
70818;SDS011;58439;51.046;13.692;2023-03-05T04:18:08;5.95;;;1.10;;
70818;SDS011;58439;51.046;13.692;2023-03-05T04:20:45;4.60;;;1.13;;
70818;SDS011;58439;51.046;13.692;2023-03-05T04:23:15;8.30;;;1.60;;
70818;SDS011;58439;51.046;13.692;2023-03-05T04:25:43;4.80;;;1.13;;
70818;SDS011;58439;51.046;13.692;2023-03-05T04:28:10;6.43;;;1.10;;
70818;SDS011;58439;51.046;13.692;2023-03-05T04:30:39;5.78;;;2.15;;
70818;SDS011;58439;51.046;13.692;2023-03-05T04:33:07;8.52;;;1.15;;
70818;SDS011;58439;51.046;13.692;2023-03-05T04:35:34;2.13;;;1.30;;
70818;SDS011;58439;51.046;13.692;2023-03-05T04:38:02;7.05;;;1.25;;
70818;SDS011;58439;51.046;13.692;2023-03-05T04:40:29;6.63;;;1.63;;
70818;SDS011;58439;51.046;13.692;2023-03-05T04:42:57;7.03;;;1.17;;
70818;SDS011;58439;51.046;13.692;2023-03-05T04:45:24;8.77;;;1.42;;
70818;SDS011;58439;51.046;13.692;2023-03-05T04:47:51;8.10;;;1.65;;
70818;SDS011;58439;51.046;13.692;2023-03-05T04:50:19;10.23;;;1.48;;
70818;SDS011;58439;51.046;13.692;2023-03-05T04:52:46;4.35;;;1.00;;
70818;SDS011;58439;51.046;13.692;2023-03-05T04:55:14;2.55;;;0.90;;
70818;SDS011;58439;51.046;13.692;2023-03-05T04:57:43;6.22;;;1.50;;
70818;SDS011;58439;51.046;13.692;2023-03-05T05:00:11;6.93;;;2.00;;
70818;SDS011;58439;51.046;13.692;2023-03-05T05:02:42;6.07;;;1.90;;
70818;SDS011;58439;51.046;13.692;2023-03-05T05:05:12;9.82;;;2.15;;
70818;SDS011;58439;51.046;13.692;2023-03-05T05:07:43;9.27;;;1.73;;
70818;SDS011;58439;51.046;13.692;2023-03-05T05:10:11;4.35;;;1.10;;
70818;SDS011;58439;51.046;13.692;2023-03-05T05:12:40;3.33;;;1.15;;
70818;SDS011;58439;51.046;13.692;2023-03-05T05:15:08;5.47;;;1.58;;
70818;SDS011;58439;51.046;13.692;2023-03-05T05:17:38;4.38;;;1.85;;
70818;SDS011;58439;51.046;13.692;2023-03-05T05:20:09;2.88;;;1.02;;
70818;SDS011;58439;51.046;13.692;2023-03-05T05:22:39;7.78;;;1.80;;
70818;SDS011;58439;51.046;13.692;2023-03-05T05:25:06;7.38;;;2.00;;
70818;SDS011;58439;51.046;13.692;2023-03-05T05:27:34;4.38;;;1.60;;
70818;SDS011;58439;51.046;13.692;2023-03-05T05:30:03;10.10;;;2.10;;
70818;SDS011;58439;51.046;13.692;2023-03-05T05:32:31;10.40;;;2.25;;
70818;SDS011;58439;51.046;13.692;2023-03-05T05:34:59;7.03;;;1.92;;
70818;SDS011;58439;51.046;13.692;2023-03-05T05:37:26;4.85;;;2.13;;
70818;SDS011;58439;51.046;13.692;2023-03-05T05:39:58;8.45;;;2.15;;
70818;SDS011;58439;51.046;13.692;2023-03-05T05:42:26;6.63;;;1.60;;
70818;SDS011;58439;51.046;13.692;2023-03-05T05:44:55;5.22;;;2.17;;
70818;SDS011;58439;51.046;13.692;2023-03-05T05:47:22;7.60;;;1.98;;
70818;SDS011;58439;51.046;13.692;2023-03-05T05:49:50;6.43;;;1.83;;
70818;SDS011;58439;51.046;13.692;2023-03-05T05:52:17;7.50;;;1.67;;
70818;SDS011;58439;51.046;13.692;2023-03-05T05:54:46;15.13;;;3.15;;
70818;SDS011;58439;51.046;13.692;2023-03-05T05:57:14;8.30;;;2.55;;
70818;SDS011;58439;51.046;13.692;2023-03-05T05:59:45;5.88;;;1.65;;
70818;SDS011;58439;51.046;13.692;2023-03-05T06:02:14;7.25;;;2.22;;
70818;SDS011;58439;51.046;13.692;2023-03-05T06:04:41;4.70;;;1.63;;
70818;SDS011;58439;51.046;13.692;2023-03-05T06:07:12;3.10;;;1.13;;
70818;SDS011;58439;51.046;13.692;2023-03-05T06:09:40;6.10;;;1.98;;
70818;SDS011;58439;51.046;13.692;2023-03-05T06:12:08;3.50;;;1.50;;
70818;SDS011;58439;51.046;13.692;2023-03-05T06:14:38;7.05;;;2.10;;
70818;SDS011;58439;51.046;13.692;2023-03-05T06:17:08;4.82;;;1.30;;
70818;SDS011;58439;51.046;13.692;2023-03-05T06:20:35;10.30;;;2.20;;
70818;SDS011;58439;51.046;13.692;2023-03-05T06:23:03;4.05;;;1.45;;
70818;SDS011;58439;51.046;13.692;2023-03-05T06:25:32;7.75;;;1.70;;
70818;SDS011;58439;51.046;13.692;2023-03-05T06:28:01;6.72;;;1.88;;
70818;SDS011;58439;51.046;13.692;2023-03-05T06:30:30;5.20;;;1.58;;
70818;SDS011;58439;51.046;13.692;2023-03-05T06:33:02;6.90;;;1.58;;
70818;SDS011;58439;51.046;13.692;2023-03-05T06:35:31;13.13;;;2.80;;
70818;SDS011;58439;51.046;13.692;2023-03-05T06:38:00;4.60;;;1.27;;
70818;SDS011;58439;51.046;13.692;2023-03-05T06:40:28;6.07;;;1.50;;
70818;SDS011;58439;51.046;13.692;2023-03-05T06:42:58;5.18;;;1.63;;
70818;SDS011;58439;51.046;13.692;2023-03-05T06:45:25;7.82;;;1.58;;
70818;SDS011;58439;51.046;13.692;2023-03-05T06:47:53;5.28;;;1.05;;
70818;SDS011;58439;51.046;13.692;2023-03-05T06:50:20;3.25;;;1.10;;
70818;SDS011;58439;51.046;13.692;2023-03-05T06:52:48;6.40;;;1.45;;
70818;SDS011;58439;51.046;13.692;2023-03-05T06:55:19;2.28;;;0.85;;
70818;SDS011;58439;51.046;13.692;2023-03-05T06:57:49;4.88;;;0.90;;
70818;SDS011;58439;51.046;13.692;2023-03-05T07:00:17;3.58;;;0.80;;
70818;SDS011;58439;51.046;13.692;2023-03-05T07:02:44;4.43;;;1.00;;
70818;SDS011;58439;51.046;13.692;2023-03-05T07:05:13;1.23;;;0.65;;
70818;SDS011;58439;51.046;13.692;2023-03-05T07:07:40;4.88;;;1.20;;
70818;SDS011;58439;51.046;13.692;2023-03-05T07:10:07;4.85;;;1.08;;
70818;SDS011;58439;51.046;13.692;2023-03-05T07:12:41;4.82;;;1.10;;
70818;SDS011;58439;51.046;13.692;2023-03-05T07:15:09;5.03;;;1.25;;
70818;SDS011;58439;51.046;13.692;2023-03-05T07:17:37;3.05;;;0.88;;
70818;SDS011;58439;51.046;13.692;2023-03-05T07:20:04;1.70;;;0.75;;
70818;SDS011;58439;51.046;13.692;2023-03-05T07:22:35;4.72;;;1.38;;
70818;SDS011;58439;51.046;13.692;2023-03-05T07:25:03;6.97;;;1.17;;
70818;SDS011;58439;51.046;13.692;2023-03-05T07:27:35;4.70;;;1.20;;
70818;SDS011;58439;51.046;13.692;2023-03-05T07:32:36;3.07;;;0.90;;
70818;SDS011;58439;51.046;13.692;2023-03-05T07:35:04;3.88;;;0.75;;
70818;SDS011;58439;51.046;13.692;2023-03-05T07:37:33;4.70;;;1.02;;
70818;SDS011;58439;51.046;13.692;2023-03-05T07:40:01;4.20;;;0.80;;
70818;SDS011;58439;51.046;13.692;2023-03-05T07:42:30;3.88;;;0.88;;
70818;SDS011;58439;51.046;13.692;2023-03-05T07:45:09;1.17;;;0.60;;
70818;SDS011;58439;51.046;13.692;2023-03-05T07:47:40;3.63;;;1.05;;
70818;SDS011;58439;51.046;13.692;2023-03-05T07:50:07;2.35;;;0.73;;
70818;SDS011;58439;51.046;13.692;2023-03-05T07:52:38;4.75;;;1.20;;
70818;SDS011;58439;51.046;13.692;2023-03-05T07:55:06;4.45;;;0.80;;
70818;SDS011;58439;51.046;13.692;2023-03-05T07:57:34;2.63;;;0.80;;
70818;SDS011;58439;51.046;13.692;2023-03-05T08:00:04;5.35;;;0.93;;
70818;SDS011;58439;51.046;13.692;2023-03-05T08:02:36;5.07;;;1.42;;
70818;SDS011;58439;51.046;13.692;2023-03-05T08:05:04;7.57;;;1.10;;
70818;SDS011;58439;51.046;13.692;2023-03-05T08:07:32;4.30;;;1.25;;
70818;SDS011;58439;51.046;13.692;2023-03-05T08:10:00;3.90;;;1.33;;
70818;SDS011;58439;51.046;13.692;2023-03-05T08:12:28;4.35;;;1.25;;
70818;SDS011;58439;51.046;13.692;2023-03-05T08:14:55;4.78;;;1.20;;
70818;SDS011;58439;51.046;13.692;2023-03-05T08:17:23;4.03;;;1.63;;
70818;SDS011;58439;51.046;13.692;2023-03-05T08:19:50;3.08;;;1.08;;
70818;SDS011;58439;51.046;13.692;2023-03-05T08:22:19;4.72;;;1.33;;
70818;SDS011;58439;51.046;13.692;2023-03-05T08:24:47;6.65;;;1.52;;
70818;SDS011;58439;51.046;13.692;2023-03-05T08:27:16;4.10;;;1.20;;
70818;SDS011;58439;51.046;13.692;2023-03-05T08:29:44;2.25;;;1.25;;
70818;SDS011;58439;51.046;13.692;2023-03-05T08:32:11;3.65;;;1.30;;
70818;SDS011;58439;51.046;13.692;2023-03-05T08:34:38;5.18;;;1.80;;
70818;SDS011;58439;51.046;13.692;2023-03-05T08:37:06;9.73;;;1.60;;
70818;SDS011;58439;51.046;13.692;2023-03-05T08:39:38;5.45;;;1.60;;
70818;SDS011;58439;51.046;13.692;2023-03-05T08:42:06;5.75;;;1.48;;
70818;SDS011;58439;51.046;13.692;2023-03-05T08:44:34;10.95;;;2.42;;
70818;SDS011;58439;51.046;13.692;2023-03-05T08:47:02;3.92;;;1.48;;
70818;SDS011;58439;51.046;13.692;2023-03-05T08:49:31;9.25;;;2.17;;
70818;SDS011;58439;51.046;13.692;2023-03-05T08:51:59;7.97;;;1.80;;
70818;SDS011;58439;51.046;13.692;2023-03-05T08:55:23;5.13;;;1.70;;
70818;SDS011;58439;51.046;13.692;2023-03-05T09:02:23;1.67;;;1.20;;
70818;SDS011;58439;51.046;13.692;2023-03-05T09:04:58;5.68;;;2.22;;
70818;SDS011;58439;51.046;13.692;2023-03-05T09:12:57;4.38;;;2.35;;
70818;SDS011;58439;51.046;13.692;2023-03-05T09:16:21;6.88;;;2.10;;
70818;SDS011;58439;51.046;13.692;2023-03-05T09:19:01;9.30;;;1.85;;
70818;SDS011;58439;51.046;13.692;2023-03-05T09:22:18;10.32;;;2.70;;
70818;SDS011;58439;51.046;13.692;2023-03-05T09:24:47;5.57;;;2.20;;
70818;SDS011;58439;51.046;13.692;2023-03-05T09:27:14;3.28;;;1.92;;
70818;SDS011;58439;51.046;13.692;2023-03-05T09:29:42;4.50;;;1.85;;
70818;SDS011;58439;51.046;13.692;2023-03-05T09:32:09;4.60;;;1.95;;
70818;SDS011;58439;51.046;13.692;2023-03-05T09:34:36;5.60;;;1.40;;
70818;SDS011;58439;51.046;13.692;2023-03-05T09:37:04;7.90;;;2.47;;
70818;SDS011;58439;51.046;13.692;2023-03-05T09:39:32;6.22;;;2.55;;
70818;SDS011;58439;51.046;13.692;2023-03-05T09:46:08;1.90;;;1.23;;
70818;SDS011;58439;51.046;13.692;2023-03-05T09:52:27;8.18;;;2.60;;
70818;SDS011;58439;51.046;13.692;2023-03-05T09:56:22;6.85;;;3.05;;
70818;SDS011;58439;51.046;13.692;2023-03-05T10:01:49;5.25;;;2.95;;
70818;SDS011;58439;51.046;13.692;2023-03-05T10:04:28;4.35;;;2.40;;
70818;SDS011;58439;51.046;13.692;2023-03-05T10:07:19;4.78;;;2.50;;
70818;SDS011;58439;51.046;13.692;2023-03-05T10:12:35;3.58;;;2.00;;
70818;SDS011;58439;51.046;13.692;2023-03-05T10:15:25;5.45;;;2.60;;
70818;SDS011;58439;51.046;13.692;2023-03-05T10:18:21;4.10;;;2.70;;
70818;SDS011;58439;51.046;13.692;2023-03-05T10:21:15;5.88;;;2.80;;
70818;SDS011;58439;51.046;13.692;2023-03-05T10:24:01;5.18;;;2.42;;
70818;SDS011;58439;51.046;13.692;2023-03-05T10:27:01;5.03;;;2.50;;
70818;SDS011;58439;51.046;13.692;2023-03-05T10:29:44;3.38;;;1.83;;
70818;SDS011;58439;51.046;13.692;2023-03-05T10:38:43;2.83;;;1.40;;
70818;SDS011;58439;51.046;13.692;2023-03-05T10:41:28;5.47;;;1.52;;
70818;SDS011;58439;51.046;13.692;2023-03-05T10:46:45;2.80;;;1.50;;
70818;SDS011;58439;51.046;13.692;2023-03-05T10:49:29;7.57;;;2.15;;
70818;SDS011;58439;51.046;13.692;2023-03-05T10:55:15;4.00;;;1.58;;
70818;SDS011;58439;51.046;13.692;2023-03-05T11:01:39;6.18;;;1.98;;
70818;SDS011;58439;51.046;13.692;2023-03-05T11:04:56;4.15;;;1.90;;
70818;SDS011;58439;51.046;13.692;2023-03-05T11:08:21;7.35;;;2.97;;
70818;SDS011;58439;51.046;13.692;2023-03-05T11:16:29;7.00;;;2.92;;
70818;SDS011;58439;51.046;13.692;2023-03-05T11:23:10;4.53;;;2.47;;
70818;SDS011;58439;51.046;13.692;2023-03-05T11:25:54;7.80;;;2.88;;
70818;SDS011;58439;51.046;13.692;2023-03-05T11:31:18;4.78;;;2.88;;
70818;SDS011;58439;51.046;13.692;2023-03-05T11:33:54;6.20;;;3.22;;
70818;SDS011;58439;51.046;13.692;2023-03-05T11:39:15;4.18;;;2.28;;
70818;SDS011;58439;51.046;13.692;2023-03-05T11:41:49;5.22;;;1.85;;
70818;SDS011;58439;51.046;13.692;2023-03-05T11:44:42;5.20;;;2.53;;
70818;SDS011;58439;51.046;13.692;2023-03-05T11:47:27;5.90;;;3.72;;
70818;SDS011;58439;51.046;13.692;2023-03-05T11:50:21;8.10;;;3.90;;
70818;SDS011;58439;51.046;13.692;2023-03-05T11:53:16;5.68;;;2.45;;
70818;SDS011;58439;51.046;13.692;2023-03-05T11:55:51;9.65;;;4.60;;
70818;SDS011;58439;51.046;13.692;2023-03-05T11:58:38;6.50;;;3.75;;
70818;SDS011;58439;51.046;13.692;2023-03-05T12:01:15;11.23;;;5.60;;
70818;SDS011;58439;51.046;13.692;2023-03-05T12:03:53;8.77;;;4.13;;
70818;SDS011;58439;51.046;13.692;2023-03-05T12:06:32;8.35;;;4.30;;
70818;SDS011;58439;51.046;13.692;2023-03-05T12:09:49;8.73;;;4.20;;
70818;SDS011;58439;51.046;13.692;2023-03-05T12:13:41;8.85;;;3.97;;
70818;SDS011;58439;51.046;13.692;2023-03-05T12:21:35;10.40;;;5.20;;
70818;SDS011;58439;51.046;13.692;2023-03-05T12:33:28;12.40;;;5.60;;
70818;SDS011;58439;51.046;13.692;2023-03-05T12:36:30;11.15;;;5.13;;
70818;SDS011;58439;51.046;13.692;2023-03-05T12:41:35;10.82;;;4.18;;
70818;SDS011;58439;51.046;13.692;2023-03-05T12:44:42;7.65;;;4.45;;
70818;SDS011;58439;51.046;13.692;2023-03-05T12:53:20;10.15;;;5.00;;
70818;SDS011;58439;51.046;13.692;2023-03-05T12:55:55;9.30;;;4.28;;
70818;SDS011;58439;51.046;13.692;2023-03-05T12:58:39;9.60;;;4.60;;
70818;SDS011;58439;51.046;13.692;2023-03-05T13:12:05;8.60;;;4.25;;
70818;SDS011;58439;51.046;13.692;2023-03-05T13:16:38;4.80;;;2.70;;
70818;SDS011;58439;51.046;13.692;2023-03-05T13:23:32;6.45;;;3.28;;
70818;SDS011;58439;51.046;13.692;2023-03-05T13:26:15;12.70;;;3.67;;
70818;SDS011;58439;51.046;13.692;2023-03-05T13:29:02;4.85;;;2.67;;
70818;SDS011;58439;51.046;13.692;2023-03-05T13:31:44;11.48;;;3.40;;
70818;SDS011;58439;51.046;13.692;2023-03-05T13:34:22;5.60;;;3.08;;
70818;SDS011;58439;51.046;13.692;2023-03-05T13:37:15;7.35;;;2.45;;
70818;SDS011;58439;51.046;13.692;2023-03-05T13:42:33;9.15;;;2.85;;
70818;SDS011;58439;51.046;13.692;2023-03-05T13:45:06;5.95;;;2.92;;
70818;SDS011;58439;51.046;13.692;2023-03-05T13:50:23;8.18;;;3.60;;
70818;SDS011;58439;51.046;13.692;2023-03-05T13:53:15;7.32;;;3.30;;
70818;SDS011;58439;51.046;13.692;2023-03-05T13:56:32;9.73;;;3.20;;
70818;SDS011;58439;51.046;13.692;2023-03-05T13:59:00;8.88;;;2.13;;
70818;SDS011;58439;51.046;13.692;2023-03-05T14:04:52;6.00;;;2.80;;
70818;SDS011;58439;51.046;13.692;2023-03-05T14:19:26;6.53;;;1.73;;
70818;SDS011;58439;51.046;13.692;2023-03-05T14:28:22;4.03;;;1.50;;
70818;SDS011;58439;51.046;13.692;2023-03-05T14:31:26;5.07;;;1.85;;
70818;SDS011;58439;51.046;13.692;2023-03-05T14:34:29;3.53;;;1.98;;
70818;SDS011;58439;51.046;13.692;2023-03-05T15:06:46;2.47;;;1.38;;
70818;SDS011;58439;51.046;13.692;2023-03-05T15:09:17;7.05;;;2.55;;
70818;SDS011;58439;51.046;13.692;2023-03-05T15:11:51;8.50;;;2.63;;
70818;SDS011;58439;51.046;13.692;2023-03-05T15:14:19;7.18;;;2.42;;
70818;SDS011;58439;51.046;13.692;2023-03-05T15:16:48;4.72;;;1.67;;
70818;SDS011;58439;51.046;13.692;2023-03-05T15:19:19;3.90;;;2.15;;
70818;SDS011;58439;51.046;13.692;2023-03-05T15:22:51;6.72;;;2.05;;
70818;SDS011;58439;51.046;13.692;2023-03-05T15:25:21;5.22;;;2.08;;
70818;SDS011;58439;51.046;13.692;2023-03-05T15:27:52;2.92;;;1.48;;
70818;SDS011;58439;51.046;13.692;2023-03-05T15:30:24;8.20;;;1.77;;
70818;SDS011;58439;51.046;13.692;2023-03-05T15:33:07;3.33;;;2.00;;
70818;SDS011;58439;51.046;13.692;2023-03-05T15:35:44;3.72;;;2.00;;
70818;SDS011;58439;51.046;13.692;2023-03-05T15:38:12;9.63;;;2.90;;
70818;SDS011;58439;51.046;13.692;2023-03-05T15:40:42;6.03;;;2.60;;
70818;SDS011;58439;51.046;13.692;2023-03-05T15:43:12;8.43;;;2.35;;
70818;SDS011;58439;51.046;13.692;2023-03-05T15:45:40;8.25;;;2.90;;
70818;SDS011;58439;51.046;13.692;2023-03-05T15:48:09;6.75;;;3.15;;
70818;SDS011;58439;51.046;13.692;2023-03-05T15:50:41;8.13;;;2.80;;
70818;SDS011;58439;51.046;13.692;2023-03-05T15:53:13;6.28;;;2.30;;
70818;SDS011;58439;51.046;13.692;2023-03-05T15:55:42;7.03;;;2.55;;
70818;SDS011;58439;51.046;13.692;2023-03-05T15:58:12;6.18;;;2.92;;
70818;SDS011;58439;51.046;13.692;2023-03-05T16:00:43;6.60;;;2.95;;
70818;SDS011;58439;51.046;13.692;2023-03-05T16:03:13;6.63;;;2.67;;
70818;SDS011;58439;51.046;13.692;2023-03-05T16:05:41;6.32;;;2.85;;
70818;SDS011;58439;51.046;13.692;2023-03-05T16:08:09;5.80;;;2.80;;
70818;SDS011;58439;51.046;13.692;2023-03-05T16:10:36;6.15;;;3.10;;
70818;SDS011;58439;51.046;13.692;2023-03-05T16:13:07;7.60;;;3.40;;
70818;SDS011;58439;51.046;13.692;2023-03-05T16:15:42;6.70;;;2.60;;
70818;SDS011;58439;51.046;13.692;2023-03-05T16:18:11;13.10;;;3.00;;
70818;SDS011;58439;51.046;13.692;2023-03-05T16:20:42;8.52;;;3.47;;
70818;SDS011;58439;51.046;13.692;2023-03-05T16:23:09;8.85;;;3.47;;
70818;SDS011;58439;51.046;13.692;2023-03-05T16:25:37;7.93;;;3.08;;
70818;SDS011;58439;51.046;13.692;2023-03-05T16:28:04;5.78;;;2.70;;
70818;SDS011;58439;51.046;13.692;2023-03-05T16:30:32;9.93;;;3.65;;
70818;SDS011;58439;51.046;13.692;2023-03-05T16:32:59;7.65;;;3.42;;
70818;SDS011;58439;51.046;13.692;2023-03-05T16:35:28;7.63;;;3.20;;
70818;SDS011;58439;51.046;13.692;2023-03-05T16:37:56;7.57;;;3.28;;
70818;SDS011;58439;51.046;13.692;2023-03-05T16:40:24;8.13;;;3.40;;
70818;SDS011;58439;51.046;13.692;2023-03-05T16:43:10;7.60;;;3.90;;
70818;SDS011;58439;51.046;13.692;2023-03-05T16:45:37;7.05;;;3.63;;
70818;SDS011;58439;51.046;13.692;2023-03-05T16:48:04;8.77;;;3.58;;
70818;SDS011;58439;51.046;13.692;2023-03-05T16:50:34;9.43;;;3.70;;
70818;SDS011;58439;51.046;13.692;2023-03-05T16:53:02;7.05;;;3.30;;
70818;SDS011;58439;51.046;13.692;2023-03-05T16:55:29;9.10;;;3.95;;
70818;SDS011;58439;51.046;13.692;2023-03-05T16:57:57;6.97;;;3.30;;
70818;SDS011;58439;51.046;13.692;2023-03-05T17:00:24;8.80;;;3.90;;
70818;SDS011;58439;51.046;13.692;2023-03-05T17:02:51;6.50;;;3.20;;
70818;SDS011;58439;51.046;13.692;2023-03-05T17:05:18;4.97;;;2.13;;
70818;SDS011;58439;51.046;13.692;2023-03-05T17:07:46;4.03;;;2.08;;
70818;SDS011;58439;51.046;13.692;2023-03-05T17:10:59;6.20;;;3.13;;
70818;SDS011;58439;51.046;13.692;2023-03-05T17:13:26;6.35;;;2.90;;
70818;SDS011;58439;51.046;13.692;2023-03-05T17:15:53;6.38;;;2.70;;
70818;SDS011;58439;51.046;13.692;2023-03-05T17:18:23;6.20;;;2.58;;
70818;SDS011;58439;51.046;13.692;2023-03-05T17:20:50;5.95;;;2.80;;
70818;SDS011;58439;51.046;13.692;2023-03-05T17:23:21;7.82;;;2.47;;
70818;SDS011;58439;51.046;13.692;2023-03-05T17:30:03;8.40;;;3.05;;
70818;SDS011;58439;51.046;13.692;2023-03-05T17:36:26;6.40;;;2.00;;
70818;SDS011;58439;51.046;13.692;2023-03-05T17:39:41;6.88;;;2.70;;
70818;SDS011;58439;51.046;13.692;2023-03-05T17:43:11;6.03;;;2.88;;
70818;SDS011;58439;51.046;13.692;2023-03-05T17:45:40;7.97;;;2.85;;
70818;SDS011;58439;51.046;13.692;2023-03-05T17:48:08;6.53;;;3.08;;
70818;SDS011;58439;51.046;13.692;2023-03-05T17:50:40;4.80;;;2.50;;
70818;SDS011;58439;51.046;13.692;2023-03-05T17:57:32;10.07;;;3.15;;
70818;SDS011;58439;51.046;13.692;2023-03-05T18:00:03;6.57;;;2.90;;
70818;SDS011;58439;51.046;13.692;2023-03-05T18:06:12;5.45;;;3.30;;
70818;SDS011;58439;51.046;13.692;2023-03-05T18:13:42;10.88;;;4.22;;
70818;SDS011;58439;51.046;13.692;2023-03-05T18:17:02;5.18;;;2.78;;